Time;durP1;ratioP1;P1;durP2;ratioP2;P2;SDS_P1;SDS_P2;PMS_P1;PMS_P2;Temp;Humidity;BMP_temperature;BMP_pressure;BME280_temperature;BME280_humidity;BME280_pressure;Samples;Min_cycle;Max_cycle;Signal;HPM_P1;HPM_P2
2022/08/01 00:01:35;;;;;;;8.40;5.43;;;20.80;79.70;;;;;;9178015;19;20508;-68
2022/08/01 00:04:40;;;;;;;12.65;5.85;;;20.80;79.80;;;;;;9177692;19;20010;-67
2022/08/01 00:07:46;;;;;;;12.38;5.15;;;20.80;79.70;;;;;;9178781;19;20014;-66
2022/08/01 00:10:51;;;;;;;10.43;5.90;;;20.80;79.90;;;;;;9175007;19;20603;-68
2022/08/01 00:13:56;;;;;;;6.53;4.88;;;20.70;79.70;;;;;;9179056;19;20010;-66
2022/08/01 00:17:04;;;;;;;12.35;5.63;;;20.70;79.70;;;;;;9177123;19;20033;-66
2022/08/01 00:20:14;;;;;;;13.15;4.85;;;20.70;79.80;;;;;;9177077;19;20019;-67
2022/08/01 00:23:19;;;;;;;11.75;5.68;;;20.70;79.90;;;;;;9166634;19;21084;-67
2022/08/01 00:26:24;;;;;;;9.50;5.28;;;20.70;79.80;;;;;;9175778;19;20003;-68
2022/08/01 00:29:29;;;;;;;7.80;5.20;;;20.70;79.80;;;;;;9176281;19;20018;-66
2022/08/01 00:32:57;;;;;;;8.57;4.93;;;20.70;79.80;;;;;;9178406;19;20042;-67
2022/08/01 00:36:02;;;;;;;8.25;5.18;;;20.70;79.90;;;;;;9175969;19;20034;-66
2022/08/01 00:39:07;;;;;;;9.15;4.93;;;20.70;79.80;;;;;;9177414;19;20337;-69
2022/08/01 00:42:14;;;;;;;8.43;4.32;;;20.70;79.90;;;;;;9176200;19;20015;-66
2022/08/01 00:45:19;;;;;;;8.73;4.35;;;20.60;79.80;;;;;;9176286;19;20021;-65
2022/08/01 00:48:27;;;;;;;7.85;5.03;;;20.60;79.80;;;;;;9176646;19;20053;-65
2022/08/01 00:51:33;;;;;;;12.05;4.10;;;20.60;80.00;;;;;;9175378;19;20022;-66
2022/08/01 00:54:38;;;;;;;6.20;4.18;;;20.70;80.00;;;;;;9165456;19;20025;-66
2022/08/01 00:57:43;;;;;;;6.57;4.13;;;20.60;80.00;;;;;;9168730;19;20111;-66
2022/08/01 01:01:08;;;;;;;9.35;4.38;;;20.60;80.00;;;;;;9170324;19;20026;-66
2022/08/01 01:04:18;;;;;;;10.32;3.67;;;20.60;80.00;;;;;;9178542;19;20086;-67
2022/08/01 01:07:33;;;;;;;9.63;4.35;;;20.60;80.20;;;;;;9186570;19;20014;-66
2022/08/01 01:10:45;;;;;;;5.10;3.92;;;20.60;80.20;;;;;;9182284;19;20353;-68
2022/08/01 01:13:59;;;;;;;7.13;4.75;;;20.60;80.30;;;;;;9185748;19;20014;-67
2022/08/01 01:17:08;;;;;;;8.43;4.10;;;20.50;80.30;;;;;;9186666;19;20018;-66
2022/08/01 01:20:17;;;;;;;7.93;4.13;;;20.50;80.20;;;;;;9186044;19;20023;-66
2022/08/01 01:23:46;;;;;;;7.10;3.92;;;20.50;80.30;;;;;;9183747;19;20471;-65
2022/08/01 01:26:58;;;;;;;7.20;4.00;;;20.50;80.60;;;;;;9183035;19;20014;-67
2022/08/01 01:30:06;;;;;;;8.02;4.10;;;20.50;80.50;;;;;;9183282;19;20017;-65
2022/08/01 01:33:13;;;;;;;5.10;3.63;;;20.50;80.50;;;;;;9182518;19;20017;-65
2022/08/01 01:36:20;;;;;;;4.63;3.50;;;20.50;80.50;;;;;;9183549;19;20014;-66
2022/08/01 01:39:28;;;;;;;4.53;3.00;;;20.50;80.50;;;;;;9183663;19;20025;-66
2022/08/01 01:42:34;;;;;;;5.50;3.40;;;20.50;80.60;;;;;;9185359;19;20507;-65
2022/08/01 01:45:43;;;;;;;4.65;3.05;;;20.50;80.50;;;;;;9181147;19;20125;-65
2022/08/01 01:48:49;;;;;;;4.03;3.30;;;20.50;80.70;;;;;;9183757;19;20038;-66
2022/08/01 01:51:57;;;;;;;4.97;2.95;;;20.50;80.60;;;;;;9182328;19;20018;-66
2022/08/01 01:55:09;;;;;;;4.45;3.65;;;20.40;80.60;;;;;;9184587;19;20082;-69
2022/08/01 01:58:16;;;;;;;4.85;3.33;;;20.40;80.70;;;;;;9182386;19;20476;-67
2022/08/01 02:01:26;;;;;;;6.03;3.90;;;20.40;80.70;;;;;;9183150;19;20049;-67
2022/08/01 02:04:52;;;;;;;7.85;3.65;;;20.40;80.80;;;;;;9182947;19;20019;-67
2022/08/01 02:07:59;;;;;;;8.20;4.20;;;20.40;80.70;;;;;;9184097;19;20018;-66
2022/08/01 02:14:24;;;;;;;7.25;3.75;;;20.40;80.80;;;;;;9181701;19;20368;-66
2022/08/01 02:17:33;;;;;;;5.50;4.00;;;20.40;80.80;;;;;;9179635;19;20096;-67
2022/08/01 02:20:40;;;;;;;8.15;3.90;;;20.40;80.90;;;;;;9181563;19;20511;-65
2022/08/01 02:23:46;;;;;;;5.32;4.40;;;20.40;80.90;;;;;;9183286;19;20033;-67
2022/08/01 02:26:55;;;;;;;6.53;4.40;;;20.30;80.90;;;;;;9180984;19;20026;-67
2022/08/01 02:30:04;;;;;;;6.10;4.18;;;20.30;81.00;;;;;;9182194;19;20021;-65
2022/08/01 02:33:19;;;;;;;6.60;3.95;;;20.30;81.00;;;;;;9182589;19;20023;-65
2022/08/01 02:36:28;;;;;;;7.30;3.80;;;20.40;81.20;;;;;;9182738;19;20014;-66
2022/08/01 02:39:40;;;;;;;4.75;3.80;;;20.30;81.00;;;;;;9180775;19;20133;-66
2022/08/01 02:42:49;;;;;;;8.38;4.13;;;20.30;81.00;;;;;;9180234;19;20030;-66
2022/08/01 02:45:58;;;;;;;9.18;4.10;;;20.30;81.10;;;;;;9181960;19;20010;-67
2022/08/01 02:49:09;;;;;;;5.72;3.80;;;20.30;81.10;;;;;;9180285;19;20586;-66
2022/08/01 02:52:16;;;;;;;6.28;3.88;;;20.30;81.20;;;;;;9180295;19;20007;-66
2022/08/01 02:55:23;;;;;;;5.75;3.72;;;20.30;81.20;;;;;;9181741;19;20011;-66
2022/08/01 02:58:29;;;;;;;6.30;4.10;;;20.30;81.20;;;;;;9179557;19;20553;-67
2022/08/01 03:01:36;;;;;;;6.60;4.25;;;20.30;81.20;;;;;;9180355;19;20049;-66
2022/08/01 03:04:47;;;;;;;6.22;4.28;;;20.30;81.30;;;;;;9181100;19;20018;-68
2022/08/01 03:08:00;;;;;;;9.63;4.40;;;20.30;81.30;;;;;;9177880;19;20022;-66
2022/08/01 03:11:09;;;;;;;6.80;4.13;;;20.30;81.30;;;;;;9177102;19;20014;-66
2022/08/01 03:14:15;;;;;;;5.53;4.13;;;20.30;81.30;;;;;;9181703;19;20014;-66
2022/08/01 03:17:22;;;;;;;6.25;4.20;;;20.30;81.40;;;;;;9180900;19;20025;-66
2022/08/01 03:20:32;;;;;;;6.53;4.45;;;20.20;81.40;;;;;;9181813;19;20340;-66
2022/08/01 03:23:38;;;;;;;5.80;4.07;;;20.30;81.50;;;;;;9181390;19;20021;-66
2022/08/01 03:26:44;;;;;;;4.72;3.92;;;20.20;81.40;;;;;;9177610;19;20030;-68
2022/08/01 03:29:50;;;;;;;6.07;4.15;;;20.20;81.50;;;;;;9181179;19;20002;-66
2022/08/01 03:32:56;;;;;;;6.38;4.28;;;20.20;81.50;;;;;;9178507;19;20042;-66
2022/08/01 03:36:07;;;;;;;7.03;4.15;;;20.20;81.50;;;;;;9181201;19;20656;-67
2022/08/01 03:39:13;;;;;;;5.25;4.00;;;20.20;81.70;;;;;;9180280;19;20542;-67
2022/08/01 03:42:22;;;;;;;6.95;4.78;;;20.20;81.60;;;;;;9179165;19;20006;-66
2022/08/01 03:45:30;;;;;;;8.95;4.20;;;20.20;81.70;;;;;;9178278;19;20021;-66
2022/08/01 03:48:38;;;;;;;5.60;4.32;;;20.20;81.70;;;;;;9178976;19;20015;-67
2022/08/01 03:51:47;;;;;;;9.02;4.45;;;20.30;81.70;;;;;;9178603;19;20018;-66
2022/08/01 03:54:55;;;;;;;6.38;4.93;;;20.20;81.70;;;;;;9178047;19;20022;-67
2022/08/01 03:58:01;;;;;;;8.77;4.03;;;20.20;81.70;;;;;;9179236;19;20011;-66
2022/08/01 04:01:13;;;;;;;6.20;4.72;;;20.30;81.70;;;;;;9179513;19;20022;-67
2022/08/01 04:04:20;;;;;;;7.68;5.10;;;20.20;81.70;;;;;;9179082;19;20014;-65
2022/08/01 04:07:29;;;;;;;7.97;5.07;;;20.20;81.70;;;;;;9178276;19;20021;-66
2022/08/01 04:10:35;;;;;;;6.85;5.20;;;20.20;81.80;;;;;;9173455;19;20014;-68
2022/08/01 04:13:40;;;;;;;6.50;4.93;;;20.20;81.70;;;;;;9179447;19;20494;-67
2022/08/01 04:16:48;;;;;;;6.90;5.13;;;20.20;81.70;;;;;;9177908;19;20018;-66
2022/08/01 04:19:53;;;;;;;8.40;4.80;;;20.20;81.80;;;;;;9179627;19;20342;-66
2022/08/01 04:23:01;;;;;;;6.43;5.00;;;20.20;81.80;;;;;;9177747;19;20011;-66
2022/08/01 04:26:08;;;;;;;7.72;5.22;;;20.20;81.90;;;;;;9178680;19;20439;-65
2022/08/01 04:29:14;;;;;;;10.60;4.75;;;20.20;81.90;;;;;;9177607;19;20018;-66
2022/08/01 04:32:23;;;;;;;10.25;4.43;;;20.20;81.90;;;;;;9177306;19;20023;-66
2022/08/01 04:35:30;;;;;;;6.05;4.40;;;20.20;81.90;;;;;;9176922;19;20018;-67
2022/08/01 04:39:02;;;;;;;7.78;3.78;;;20.20;81.90;;;;;;9180727;19;20019;-64
2022/08/01 04:42:08;;;;;;;5.18;3.63;;;20.20;82.00;;;;;;9186493;19;20104;-66
2022/08/01 04:45:14;;;;;;;4.18;3.17;;;20.10;81.80;;;;;;9187638;19;20015;-65
2022/08/01 04:48:21;;;;;;;6.60;3.50;;;20.10;81.90;;;;;;9183205;19;20019;-65
2022/08/01 04:51:26;;;;;;;4.07;3.38;;;20.10;81.90;;;;;;9185012;19;20102;-65
2022/08/01 04:54:36;;;;;;;3.90;2.97;;;20.10;81.90;;;;;;9187516;19;20029;-65
2022/08/01 04:57:45;;;;;;;7.60;2.92;;;20.10;82.00;;;;;;9185029;19;20032;-67
2022/08/01 05:00:50;;;;;;;4.47;3.35;;;20.10;82.00;;;;;;9187012;19;20381;-67
2022/08/01 05:03:55;;;;;;;5.45;3.20;;;20.10;81.90;;;;;;9186632;19;20026;-67
2022/08/01 05:07:00;;;;;;;8.02;3.80;;;20.10;82.00;;;;;;9185639;19;20011;-65
2022/08/01 05:10:08;;;;;;;4.28;3.20;;;20.10;82.00;;;;;;9181655;19;20049;-65
2022/08/01 05:13:13;;;;;;;4.00;3.35;;;20.10;82.00;;;;;;9181107;19;20488;-65
2022/08/01 05:16:19;;;;;;;8.60;3.63;;;20.10;82.00;;;;;;9186628;19;20007;-65
2022/08/01 05:19:24;;;;;;;5.25;3.80;;;20.10;82.00;;;;;;9185748;19;20018;-65
2022/08/01 05:22:29;;;;;;;5.88;3.58;;;20.10;82.00;;;;;;9186058;19;20018;-64
2022/08/01 05:25:38;;;;;;;5.13;3.72;;;20.10;82.10;;;;;;9185860;19;20021;-65
2022/08/01 05:29:02;;;;;;;4.85;3.80;;;20.10;82.10;;;;;;9180514;19;20018;-65
2022/08/01 05:32:07;;;;;;;4.65;3.38;;;20.10;82.10;;;;;;9183860;19;20011;-65
2022/08/01 05:35:13;;;;;;;5.32;3.20;;;20.10;82.10;;;;;;9184085;19;20018;-65
2022/08/01 05:38:18;;;;;;;4.53;3.13;;;20.10;82.10;;;;;;9185470;19;20017;-65
2022/08/01 05:41:29;;;;;;;5.18;3.50;;;20.10;82.10;;;;;;9181279;19;20070;-66
2022/08/01 05:44:34;;;;;;;5.82;3.40;;;20.10;82.20;;;;;;9185610;19;20018;-65
2022/08/01 05:47:39;;;;;;;7.90;4.15;;;20.10;82.10;;;;;;9181812;19;20662;-65
2022/08/01 05:50:47;;;;;;;4.43;3.58;;;20.10;82.10;;;;;;9185001;19;20049;-66
2022/08/01 05:53:52;;;;;;;6.32;3.90;;;20.10;82.10;;;;;;9182905;19;20368;-67
2022/08/01 05:57:01;;;;;;;12.93;3.50;;;20.10;82.20;;;;;;9185024;19;20029;-67
2022/08/01 06:00:08;;;;;;;6.45;3.58;;;20.10;82.80;;;;;;9182136;19;20043;-64
2022/08/01 06:03:16;;;;;;;3.55;2.80;;;20.10;82.20;;;;;;9180749;19;20387;-65
2022/08/01 06:06:21;;;;;;;4.97;2.97;;;20.10;82.20;;;;;;9178575;19;20026;-65
2022/08/01 06:09:30;;;;;;;3.70;2.85;;;20.10;82.20;;;;;;9178447;19;20015;-66
2022/08/01 06:12:39;;;;;;;5.15;2.47;;;20.10;82.20;;;;;;9183827;19;20010;-66
2022/08/01 06:15:44;;;;;;;5.90;1.85;;;20.10;82.20;;;;;;9182807;19;20466;-66
2022/08/01 06:18:49;;;;;;;5.38;1.80;;;20.10;82.10;;;;;;9181215;19;20010;-66
2022/08/01 06:22:00;;;;;;;3.28;1.70;;;20.10;82.00;;;;;;9179995;19;20073;-66
2022/08/01 06:25:06;;;;;;;4.57;1.48;;;20.10;82.00;;;;;;9177414;19;20030;-66
2022/08/01 06:28:13;;;;;;;3.35;1.30;;;20.00;81.90;;;;;;9173987;19;20018;-66
2022/08/01 06:31:18;;;;;;;7.63;2.45;;;20.00;81.90;;;;;;9177250;19;20014;-66
2022/08/01 06:34:32;;;;;;;6.68;1.88;;;20.00;82.00;;;;;;9178215;19;20052;-66
2022/08/01 06:37:40;;;;;;;5.18;1.80;;;20.00;82.00;;;;;;9182272;19;20425;-67
2022/08/01 06:40:45;;;;;;;7.05;1.85;;;20.00;82.60;;;;;;9181942;19;20022;-67
2022/08/01 06:43:53;;;;;;;4.97;1.45;;;20.00;81.90;;;;;;9181330;19;20025;-66
2022/08/01 06:46:58;;;;;;;7.93;1.85;;;19.90;81.90;;;;;;9178609;19;20019;-67
2022/08/01 06:50:03;;;;;;;8.18;1.88;;;20.00;81.90;;;;;;9178951;19;20025;-66
2022/08/01 06:53:08;;;;;;;3.80;1.60;;;20.00;81.90;;;;;;9178445;19;20479;-66
2022/08/01 06:56:13;;;;;;;8.43;1.95;;;20.00;81.80;;;;;;9179633;19;20017;-67
2022/08/01 06:59:20;;;;;;;8.52;1.95;;;20.00;81.80;;;;;;9179870;19;20022;-67
2022/08/01 07:02:26;;;;;;;6.53;1.80;;;20.00;81.70;;;;;;9176588;19;20344;-67
2022/08/01 07:05:31;;;;;;;3.67;1.70;;;20.00;81.60;;;;;;9177627;19;20492;-70
2022/08/01 07:08:36;;;;;;;5.97;1.92;;;20.00;81.60;;;;;;9178537;19;20658;-67
2022/08/01 07:11:43;;;;;;;6.47;1.92;;;20.00;81.60;;;;;;9174476;19;20018;-67
2022/08/01 07:14:51;;;;;;;5.82;1.80;;;20.10;81.70;;;;;;9179277;19;20025;-67
2022/08/01 07:17:56;;;;;;;3.08;1.88;;;20.10;81.80;;;;;;9180308;19;20022;-67
2022/08/01 07:21:01;;;;;;;5.35;1.65;;;20.10;81.70;;;;;;9179097;19;20018;-67
2022/08/01 07:24:09;;;;;;;5.90;1.90;;;20.10;81.70;;;;;;9180161;19;20093;-66
2022/08/01 07:27:17;;;;;;;6.10;1.70;;;20.10;82.20;;;;;;9178326;19;20094;-67
2022/08/01 07:30:32;;;;;;;11.52;2.13;;;20.10;81.70;;;;;;9177694;19;20010;-67
2022/08/01 07:33:37;;;;;;;5.55;1.67;;;20.10;81.60;;;;;;9177924;19;20022;-68
2022/08/01 07:36:53;;;;;;;7.88;1.70;;;20.10;81.50;;;;;;9179477;19;20014;-67
2022/08/01 07:39:58;;;;;;;7.47;2.05;;;20.10;81.40;;;;;;9177659;19;20014;-67
2022/08/01 07:43:03;;;;;;;7.60;1.65;;;20.10;81.40;;;;;;9179722;19;20015;-67
2022/08/01 07:46:11;;;;;;;10.43;2.33;;;20.10;81.30;;;;;;9177679;19;20022;-67
2022/08/01 07:49:16;;;;;;;6.53;2.15;;;20.10;81.20;;;;;;9177505;19;20014;-67
2022/08/01 07:52:22;;;;;;;7.38;1.77;;;20.00;81.10;;;;;;9178999;19;20015;-66
2022/08/01 07:55:26;;;;;;;6.82;2.20;;;20.00;81.10;;;;;;9178783;19;20022;-67
2022/08/01 07:58:32;;;;;;;9.57;1.90;;;20.00;81.00;;;;;;9172763;19;20015;-67
2022/08/01 08:01:39;;;;;;;4.18;1.75;;;20.00;81.00;;;;;;9173260;19;20357;-67
2022/08/01 08:04:45;;;;;;;6.97;2.22;;;20.00;80.90;;;;;;9172712;19;20025;-67
2022/08/01 08:07:53;;;;;;;10.10;2.67;;;20.00;80.90;;;;;;9173004;19;20014;-67
2022/08/01 08:10:58;;;;;;;7.97;2.17;;;19.90;80.90;;;;;;9166462;19;20025;-66
2022/08/01 08:14:03;;;;;;;9.82;2.22;;;19.90;80.90;;;;;;9177831;19;20018;-66
2022/08/01 08:17:10;;;;;;;13.85;2.60;;;19.90;80.90;;;;;;9182919;19;20018;-67
2022/08/01 08:20:15;;;;;;;8.27;2.05;;;19.90;81.00;;;;;;9181757;19;20019;-67
2022/08/01 08:26:47;;;;;;;13.73;2.20;;;20.00;80.90;;;;;;9176437;19;20094;-67
2022/08/01 08:29:56;;;;;;;11.85;1.92;;;20.00;80.70;;;;;;9177303;19;20023;-67
2022/08/01 08:33:03;;;;;;;9.02;2.22;;;20.10;80.50;;;;;;9177250;19;20019;-66
2022/08/01 08:36:17;;;;;;;7.45;1.98;;;20.10;80.20;;;;;;9179114;19;20018;-67
2022/08/01 08:39:22;;;;;;;14.45;2.20;;;20.10;80.00;;;;;;9180941;19;20021;-67
2022/08/01 08:42:28;;;;;;;13.13;2.15;;;20.10;79.80;;;;;;9179249;19;20503;-66
2022/08/01 08:45:33;;;;;;;8.20;1.95;;;20.20;79.60;;;;;;9177966;19;20018;-67
2022/08/01 08:49:02;;;;;;;11.02;2.00;;;20.20;79.50;;;;;;9177794;19;20027;-67
2022/08/01 08:52:10;;;;;;;15.02;2.95;;;20.30;79.40;;;;;;9180621;19;20017;-67
2022/08/01 08:55:18;;;;;;;10.05;2.08;;;20.40;79.30;;;;;;9179003;19;20117;-67
2022/08/01 08:58:24;;;;;;;9.38;2.10;;;20.40;79.10;;;;;;9180366;19;20014;-66
2022/08/01 09:01:35;;;;;;;13.23;2.38;;;20.50;79.00;;;;;;9173604;19;20082;-67
2022/08/01 09:04:43;;;;;;;15.63;2.05;;;20.60;78.70;;;;;;9177763;19;20018;-66
2022/08/01 09:07:48;;;;;;;14.35;2.38;;;20.70;78.50;;;;;;9178106;19;20364;-67
2022/08/01 09:10:54;;;;;;;11.60;2.28;;;20.80;78.40;;;;;;9180905;19;20492;-69
2022/08/01 09:14:11;;;;;;;16.13;2.50;;;20.80;78.10;;;;;;9184553;19;20015;-67
2022/08/01 09:17:18;;;;;;;7.70;2.05;;;20.90;77.60;;;;;;9184747;19;20362;-67
2022/08/01 09:20:27;;;;;;;9.65;1.45;;;20.90;77.60;;;;;;9183273;19;20026;-67
2022/08/01 09:23:39;;;;;;;10.57;1.88;;;21.00;77.30;;;;;;9184044;19;20647;-66
2022/08/01 09:26:59;;;;;;;6.55;1.65;;;21.10;77.10;;;;;;9183528;19;20022;-66
2022/08/01 09:30:13;;;;;;;7.57;1.98;;;21.10;77.00;;;;;;9181599;19;20026;-69
2022/08/01 09:33:27;;;;;;;13.05;2.08;;;21.20;76.50;;;;;;9182910;19;20015;-67
2022/08/01 09:36:51;;;;;;;13.38;2.35;;;21.30;76.40;;;;;;9181947;19;20125;-71
2022/08/01 09:39:58;;;;;;;13.43;2.30;;;21.40;75.90;;;;;;9182839;19;20497;-69
2022/08/01 09:43:13;;;;;;;11.77;2.47;;;21.50;76.00;;;;;;9183230;19;20021;-70
2022/08/01 09:46:19;;;;;;;16.75;2.50;;;21.60;75.80;;;;;;9184701;19;20822;-71
2022/08/01 09:49:33;;;;;;;11.18;1.95;;;21.70;75.80;;;;;;9182894;19;20033;-66
2022/08/01 09:52:58;;;;;;;11.80;1.80;;;21.80;75.40;;;;;;9182724;19;20369;-67
2022/08/01 09:56:12;;;;;;;9.68;1.88;;;21.90;75.10;;;;;;9181853;19;20006;-72
2022/08/01 09:59:18;;;;;;;9.40;1.90;;;22.00;74.60;;;;;;9180486;19;20022;-69
2022/08/01 10:02:31;;;;;;;6.70;1.98;;;22.10;74.60;;;;;;9177403;19;20018;-73
2022/08/01 10:05:42;;;;;;;13.85;1.92;;;22.10;74.10;;;;;;9178873;19;20797;-71
2022/08/01 10:08:56;;;;;;;12.05;1.75;;;22.20;74.20;;;;;;9178982;19;20018;-71
2022/08/01 10:12:02;;;;;;;9.70;2.35;;;22.30;73.90;;;;;;9176061;19;20030;-68
2022/08/01 10:15:09;;;;;;;12.48;2.20;;;22.40;73.80;;;;;;9179193;19;20056;-67
2022/08/01 10:18:16;;;;;;;12.48;2.00;;;22.40;73.60;;;;;;9177707;19;20033;-70
2022/08/01 10:21:31;;;;;;;14.20;1.77;;;22.50;73.50;;;;;;9177761;19;20011;-70
2022/08/01 10:24:59;;;;;;;10.82;2.15;;;22.60;73.30;;;;;;9178622;19;20020;-71
2022/08/01 10:28:12;;;;;;;12.07;1.85;;;22.70;73.10;;;;;;9180108;19;20022;-70
2022/08/01 10:31:22;;;;;;;8.20;1.65;;;22.70;72.70;;;;;;9173051;19;20030;-71
2022/08/01 10:34:37;;;;;;;8.48;1.60;;;22.80;72.50;;;;;;9176029;19;20022;-72
2022/08/01 10:37:45;;;;;;;13.30;1.83;;;22.80;72.10;;;;;;9178313;19;20405;-70
2022/08/01 10:41:01;;;;;;;10.38;2.08;;;22.90;71.90;;;;;;9177511;19;20468;-68
2022/08/01 10:44:11;;;;;;;;;;;23.00;71.50;;;;;;9174739;19;20018;-68
2022/08/01 10:47:19;;;;;;;5.82;1.80;;;23.00;71.90;;;;;;9178459;19;19926;-67
2022/08/01 10:50:49;;;;;;;13.05;1.95;;;23.00;71.60;;;;;;9176467;19;20718;-70
2022/08/01 10:53:55;;;;;;;8.95;1.77;;;23.10;71.40;;;;;;9179659;19;20062;-71
2022/08/01 10:57:07;;;;;;;12.77;2.40;;;23.20;71.20;;;;;;9173321;19;20388;-70
2022/08/01 11:00:20;;;;;;;10.93;1.95;;;23.30;70.90;;;;;;9167485;19;20393;-67
2022/08/01 11:03:37;;;;;;;9.57;1.65;;;23.30;70.40;;;;;;9167198;19;20631;-69
2022/08/01 11:07:07;;;;;;;9.23;2.20;;;23.30;70.20;;;;;;9169539;19;20476;-70
2022/08/01 11:10:25;;;;;;;9.20;1.85;;;23.40;70.20;;;;;;9169062;19;20018;-67
2022/08/01 11:14:00;;;;;;;8.77;2.05;;;23.40;69.70;;;;;;9169101;19;20038;-69
2022/08/01 11:17:38;;;;;;;12.05;1.90;;;23.40;69.50;;;;;;9169673;19;20388;-68
2022/08/01 11:20:59;;;;;;;13.57;2.05;;;23.50;69.50;;;;;;9170757;19;20018;-69
2022/08/01 11:24:56;;;;;;;9.38;2.13;;;23.50;69.40;;;;;;9167147;19;20031;-72
2022/08/01 11:28:23;;;;;;;8.93;2.00;;;23.50;69.20;;;;;;9168021;19;20753;-71
2022/08/01 11:31:39;;;;;;;9.13;1.88;;;23.50;69.10;;;;;;9172948;19;20134;-71
2022/08/01 11:34:59;;;;;;;14.35;2.28;;;23.60;69.20;;;;;;9173610;19;20020;-71
2022/08/01 11:38:27;;;;;;;9.77;1.92;;;23.60;68.70;;;;;;9171418;19;20018;-71
2022/08/01 11:41:35;;;;;;;8.98;1.70;;;23.60;68.60;;;;;;9172312;19;20110;-71
2022/08/01 11:44:51;;;;;;;9.98;1.77;;;23.60;68.80;;;;;;9173767;19;20057;-70
2022/08/01 11:47:57;;;;;;;9.32;1.85;;;23.70;68.40;;;;;;9162254;19;20027;-73
2022/08/01 11:51:05;;;;;;;8.82;2.20;;;23.70;68.50;;;;;;9167685;19;20212;-71
2022/08/01 11:54:15;;;;;;;11.73;2.10;;;23.70;68.20;;;;;;9165695;19;20018;-69
2022/08/01 11:57:39;;;;;;;7.72;1.73;;;23.80;68.30;;;;;;9164778;19;20027;-68
2022/08/01 12:00:52;;;;;;;7.60;1.75;;;23.80;68.20;;;;;;9160115;19;20788;-69
2022/08/01 12:03:58;;;;;;;11.18;1.80;;;23.90;68.10;;;;;;9165403;19;20016;-68
2022/08/01 12:07:17;;;;;;;11.70;1.80;;;23.90;68.00;;;;;;9167889;19;20057;-73
2022/08/01 12:10:23;;;;;;;7.53;1.70;;;23.90;67.60;;;;;;9158233;19;21364;-71
2022/08/01 12:13:30;;;;;;;12.73;1.80;;;24.00;67.70;;;;;;9169633;19;20021;-70
2022/08/01 12:16:35;;;;;;;9.93;2.22;;;24.00;67.60;;;;;;9168913;19;20538;-75
2022/08/01 12:19:40;;;;;;;10.98;1.90;;;24.10;67.40;;;;;;9168968;19;20021;-72
2022/08/01 12:22:48;;;;;;;8.60;2.10;;;24.20;67.30;;;;;;9167428;19;20022;-70
2022/08/01 12:25:54;;;;;;;8.32;2.22;;;24.20;67.00;;;;;;9167819;19;20022;-69
2022/08/01 12:28:59;;;;;;;8.77;1.95;;;24.30;67.00;;;;;;9166017;19;20014;-68
2022/08/01 12:32:07;;;;;;;6.35;1.45;;;24.30;66.70;;;;;;9165732;19;20038;-69
2022/08/01 12:35:14;;;;;;;6.55;1.67;;;24.30;66.40;;;;;;9168832;19;20586;-69
2022/08/01 12:38:26;;;;;;;6.65;1.60;;;24.40;66.10;;;;;;9165780;19;20507;-70
2022/08/01 12:41:32;;;;;;;12.05;2.00;;;24.50;65.70;;;;;;9166579;19;20026;-69
2022/08/01 12:44:37;;;;;;;7.25;1.75;;;24.50;65.70;;;;;;9164195;19;20393;-69
2022/08/01 12:47:43;;;;;;;8.32;1.77;;;24.50;65.50;;;;;;9164579;19;20069;-69
2022/08/01 12:50:52;;;;;;;5.28;1.15;;;24.50;65.20;;;;;;9166855;19;20026;-70
2022/08/01 12:54:04;;;;;;;10.80;1.63;;;24.50;65.00;;;;;;9167233;19;20018;-69
2022/08/01 12:57:25;;;;;;;9.65;2.08;;;24.60;64.80;;;;;;9163827;19;20122;-70
2022/08/01 13:00:30;;;;;;;8.73;1.55;;;24.60;64.50;;;;;;9166694;19;20531;-70
2022/08/01 13:03:36;;;;;;;7.00;1.33;;;24.70;64.70;;;;;;9173298;19;20022;-70
2022/08/01 13:06:44;;;;;;;6.80;1.27;;;24.70;64.50;;;;;;9171236;19;20515;-70
2022/08/01 13:09:54;;;;;;;8.10;1.95;;;24.80;64.20;;;;;;9176356;19;20018;-69
2022/08/01 13:13:02;;;;;;;4.40;1.20;;;24.80;63.80;;;;;;9178500;19;20015;-68
2022/08/01 13:16:12;;;;;;;7.68;1.52;;;24.90;63.80;;;;;;9178707;19;20026;-68
2022/08/01 13:19:51;;;;;;;11.88;2.10;;;25.00;63.50;;;;;;9180051;19;20074;-69
2022/08/01 13:23:16;;;;;;;11.77;1.60;;;25.00;63.80;;;;;;9178593;19;20490;-68
2022/08/01 13:26:46;;;;;;;8.63;1.48;;;25.00;63.10;;;;;;9174718;19;20037;-68
2022/08/01 13:29:54;;;;;;;4.97;1.77;;;25.10;63.20;;;;;;9177028;19;20010;-70
2022/08/01 13:33:17;;;;;;;7.60;1.27;;;25.20;63.30;;;;;;9173468;19;20022;-68
2022/08/01 13:36:22;;;;;;;7.40;1.58;;;25.20;62.70;;;;;;9174236;19;20014;-67
2022/08/01 13:39:44;;;;;;;8.63;1.20;;;25.30;63.00;;;;;;9176832;19;20018;-71
2022/08/01 13:42:52;;;;;;;3.95;1.40;;;25.30;62.60;;;;;;9177652;19;20052;-68
2022/08/01 13:46:02;;;;;;;12.32;1.52;;;25.40;62.50;;;;;;9177889;19;20118;-69
2022/08/01 13:49:11;;;;;;;5.63;1.40;;;25.40;62.40;;;;;;9176189;19;20019;-69
2022/08/01 13:52:23;;;;;;;10.18;2.17;;;25.50;62.10;;;;;;9175989;19;20041;-72
2022/08/01 13:55:28;;;;;;;5.40;1.30;;;25.50;62.00;;;;;;9179888;19;20010;-71
2022/08/01 13:58:41;;;;;;;5.03;1.30;;;25.60;61.80;;;;;;9178562;19;20033;-70
2022/08/01 14:01:47;;;;;;;9.50;1.75;;;25.60;61.60;;;;;;9176442;19;20331;-71
2022/08/01 14:04:52;;;;;;;2.80;1.17;;;25.60;61.50;;;;;;9177479;19;20030;-71
2022/08/01 14:07:59;;;;;;;3.85;1.17;;;25.60;61.40;;;;;;9182065;19;20115;-70
2022/08/01 14:11:05;;;;;;;6.45;1.42;;;25.60;61.20;;;;;;9174503;19;20113;-70
2022/08/01 14:14:14;;;;;;;3.85;1.13;;;25.70;61.20;;;;;;9181736;19;20100;-70
2022/08/01 14:17:19;;;;;;;6.65;1.80;;;25.70;60.90;;;;;;9180143;19;20015;-73
2022/08/01 14:20:26;;;;;;;8.70;1.75;;;25.60;60.90;;;;;;9176625;19;20387;-70
2022/08/01 14:23:31;;;;;;;7.85;1.15;;;25.60;60.70;;;;;;9173704;19;20029;-71
2022/08/01 14:26:36;;;;;;;7.35;1.42;;;25.60;60.60;;;;;;9171409;19;20041;-69
2022/08/01 14:29:46;;;;;;;5.65;1.50;;;25.60;60.50;;;;;;9171241;19;20029;-68
2022/08/01 14:33:10;;;;;;;4.90;1.00;;;25.60;60.30;;;;;;9169058;19;20025;-69
2022/08/01 14:36:15;;;;;;;4.07;1.40;;;25.60;60.40;;;;;;9166263;19;20022;-68
2022/08/01 14:39:34;;;;;;;8.63;1.45;;;25.60;60.20;;;;;;9169895;19;20022;-69
2022/08/01 14:42:43;;;;;;;5.80;1.13;;;25.70;60.30;;;;;;9167052;19;20387;-70
2022/08/01 14:45:51;;;;;;;5.53;1.48;;;25.70;60.00;;;;;;9167073;19;20574;-69
2022/08/01 14:48:56;;;;;;;5.57;1.67;;;25.70;59.70;;;;;;9164806;19;20015;-67
2022/08/01 14:52:02;;;;;;;4.85;0.95;;;25.70;59.70;;;;;;9166934;19;20052;-69
2022/08/01 14:55:09;;;;;;;6.25;1.25;;;25.70;59.50;;;;;;9166068;19;20078;-68
2022/08/01 14:58:14;;;;;;;6.28;0.98;;;25.70;59.40;;;;;;9165728;19;20037;-70
2022/08/01 15:01:27;;;;;;;5.00;1.50;;;25.70;59.40;;;;;;9167264;19;20022;-71
2022/08/01 15:04:33;;;;;;;7.43;1.45;;;25.60;59.10;;;;;;9168660;19;20048;-71
2022/08/01 15:07:39;;;;;;;4.82;1.33;;;25.60;59.30;;;;;;9167133;19;20544;-72
2022/08/01 15:10:57;;;;;;;10.82;1.55;;;25.60;59.20;;;;;;9168018;19;20011;-71
2022/08/01 15:17:24;;;;;;;6.05;1.67;;;25.60;59.10;;;;;;9173564;19;20021;-75
2022/08/01 15:20:29;;;;;;;5.88;1.30;;;25.70;59.00;;;;;;9172163;19;20022;-73
2022/08/01 15:23:35;;;;;;;7.63;1.38;;;25.70;59.10;;;;;;9166161;19;20484;-74
2022/08/01 15:26:44;;;;;;;2.08;1.33;;;25.70;59.00;;;;;;9168381;19;20018;-78
2022/08/01 15:29:53;;;;;;;8.02;1.25;;;25.70;58.80;;;;;;9165967;19;20773;-75
2022/08/01 15:33:01;;;;;;;5.82;1.50;;;25.70;58.60;;;;;;9168279;19;20539;-72
2022/08/01 15:36:07;;;;;;;6.93;1.05;;;25.70;58.50;;;;;;9161349;19;20090;-69
2022/08/01 15:39:21;;;;;;;4.90;1.67;;;25.70;58.50;;;;;;9168509;19;20024;-76
2022/08/01 15:42:27;;;;;;;7.07;1.60;;;25.70;58.50;;;;;;9168656;19;20033;-76
2022/08/01 15:45:32;;;;;;;3.90;1.30;;;25.70;58.40;;;;;;9169274;19;20014;-80
2022/08/01 15:48:55;;;;;;;4.93;1.30;;;25.70;58.30;;;;;;9169628;19;20045;-78
2022/08/01 15:52:01;;;;;;;5.53;1.30;;;25.70;58.20;;;;;;9166744;19;20024;-72
2022/08/01 15:55:07;;;;;;;4.00;1.25;;;25.70;58.10;;;;;;9169765;19;20022;-73
2022/08/01 15:58:13;;;;;;;5.78;1.27;;;25.70;57.90;;;;;;9170345;19;20490;-73
2022/08/01 16:01:18;;;;;;;3.90;1.10;;;25.70;57.80;;;;;;9170419;19;20050;-72
2022/08/01 16:04:27;;;;;;;2.72;1.23;;;25.70;57.60;;;;;;9171640;19;20014;-70
2022/08/01 16:07:34;;;;;;;2.30;1.08;;;25.70;57.40;;;;;;9173177;19;20022;-71
2022/08/01 16:10:59;;;;;;;4.00;0.90;;;25.60;57.30;;;;;;9166220;19;20014;-73
2022/08/01 16:14:05;;;;;;;4.55;1.10;;;25.50;57.10;;;;;;9167144;19;20014;-73
2022/08/01 16:17:14;;;;;;;8.27;1.30;;;25.50;56.90;;;;;;9167911;19;20105;-71
2022/08/01 16:20:22;;;;;;;3.40;0.98;;;25.50;56.80;;;;;;9169326;19;20014;-71
2022/08/01 16:23:28;;;;;;;15.25;1.73;;;25.40;56.50;;;;;;9167683;19;20124;-70
2022/08/01 16:26:34;;;;;;;2.88;1.02;;;25.40;56.50;;;;;;9167786;19;20036;-70
2022/08/01 16:29:41;;;;;;;8.20;1.25;;;25.30;56.30;;;;;;9167141;19;20015;-76
2022/08/01 16:32:46;;;;;;;9.32;1.13;;;25.30;56.20;;;;;;9163300;19;20022;-68
2022/08/01 16:36:02;;;;;;;3.93;1.20;;;25.20;56.10;;;;;;9165189;19;20027;-66